createdAt,value
2022-12-19T00:00:26.739Z,7.00
2022-12-19T00:01:26.891Z,7.00
2022-12-19T00:02:26.816Z,6.90
2022-12-19T00:03:26.876Z,6.60
2022-12-19T00:04:26.717Z,7.30
2022-12-19T00:05:26.689Z,7.00
2022-12-19T00:06:26.684Z,7.60
2022-12-19T00:07:26.669Z,6.80
2022-12-19T00:08:26.668Z,7.30
2022-12-19T00:09:26.677Z,7.70
2022-12-19T00:10:26.647Z,7.00
2022-12-19T00:11:26.620Z,7.70
2022-12-19T00:12:26.615Z,8.20
2022-12-19T00:13:26.654Z,8.30
2022-12-19T00:14:26.609Z,7.70
2022-12-19T00:15:26.585Z,7.80
2022-12-19T00:16:26.659Z,7.50
2022-12-19T00:17:26.563Z,7.50
2022-12-19T00:18:26.560Z,8.20
2022-12-19T00:19:26.569Z,8.20
2022-12-19T00:20:26.529Z,9.10
2022-12-19T00:21:26.528Z,8.50
2022-12-19T00:22:26.514Z,8.60
2022-12-19T00:23:26.507Z,8.90
2022-12-19T00:24:26.490Z,8.70
2022-12-19T00:25:26.485Z,8.80
2022-12-19T00:26:26.472Z,8.50
2022-12-19T00:27:26.458Z,8.00
2022-12-19T00:28:26.458Z,9.10
2022-12-19T00:29:26.453Z,8.20
2022-12-19T00:30:26.422Z,8.30
2022-12-19T00:31:26.443Z,8.50
2022-12-19T00:32:26.397Z,7.80
2022-12-19T00:33:26.391Z,8.10
2022-12-19T00:34:26.396Z,7.80
2022-12-19T00:35:26.371Z,7.70
2022-12-19T00:36:26.363Z,7.60
2022-12-19T00:37:26.350Z,7.80
2022-12-19T00:38:26.347Z,7.90
2022-12-19T00:39:26.343Z,8.00
2022-12-19T00:40:26.319Z,8.30
2022-12-19T00:41:26.305Z,8.10
2022-12-19T00:42:26.298Z,7.40
2022-12-19T00:43:26.283Z,7.80
2022-12-19T00:44:26.294Z,8.40
2022-12-19T00:45:26.314Z,8.00
2022-12-19T00:46:26.250Z,7.80
2022-12-19T00:47:26.243Z,7.70
2022-12-19T00:48:26.232Z,7.60
2022-12-19T00:49:26.229Z,8.00
2022-12-19T00:50:26.224Z,7.80
2022-12-19T00:51:26.208Z,7.60
2022-12-19T00:52:26.210Z,8.30
2022-12-19T00:53:26.180Z,8.00
2022-12-19T00:54:26.225Z,8.50
2022-12-19T00:55:26.180Z,7.80
2022-12-19T00:56:26.156Z,7.90
2022-12-19T00:57:26.136Z,8.40
2022-12-19T00:58:26.127Z,7.90
2022-12-19T00:59:26.736Z,7.60
2022-12-19T01:00:26.128Z,7.90
2022-12-19T01:01:26.203Z,7.40
2022-12-19T01:02:26.236Z,7.50
2022-12-19T01:03:26.080Z,8.10
2022-12-19T01:04:28.561Z,7.10
2022-12-19T01:05:26.070Z,7.10
2022-12-19T01:06:26.052Z,7.70
2022-12-19T01:07:26.027Z,7.50
2022-12-19T01:08:26.016Z,6.90
2022-12-19T01:09:26.028Z,7.70
2022-12-19T01:10:26.002Z,7.70
2022-12-19T01:11:26.011Z,7.10
2022-12-19T01:12:25.991Z,7.30
2022-12-19T01:13:25.966Z,7.90
2022-12-19T01:14:25.954Z,7.10
2022-12-19T01:15:25.952Z,7.70
2022-12-19T01:16:25.978Z,7.40
2022-12-19T01:17:25.949Z,7.30
2022-12-19T01:18:25.915Z,7.30
2022-12-19T01:19:25.902Z,7.10
2022-12-19T01:20:29.514Z,7.20
2022-12-19T01:21:25.875Z,7.10
2022-12-19T01:22:25.863Z,6.80
2022-12-19T01:23:25.852Z,7.60
2022-12-19T01:24:25.850Z,7.80
2022-12-19T01:25:25.857Z,6.80
2022-12-19T01:26:25.828Z,7.10
2022-12-19T01:27:25.834Z,7.00
2022-12-19T01:28:25.811Z,7.40
2022-12-19T01:29:25.794Z,6.90
2022-12-19T01:30:26.064Z,7.00
2022-12-19T01:31:25.808Z,7.20
2022-12-19T01:32:25.786Z,6.70
2022-12-19T01:33:25.771Z,6.50
2022-12-19T01:34:25.752Z,6.90
2022-12-19T01:35:25.733Z,7.30
2022-12-19T01:36:25.719Z,7.50
2022-12-19T01:37:25.730Z,7.20
2022-12-19T01:38:25.700Z,6.80
2022-12-19T01:39:25.694Z,7.00
2022-12-19T01:40:25.689Z,8.10
2022-12-19T01:41:25.675Z,6.60
2022-12-19T01:42:25.651Z,6.70
2022-12-19T01:43:25.668Z,7.10
2022-12-19T01:44:25.629Z,7.10
2022-12-19T01:45:30.391Z,7.30
2022-12-19T01:46:26.638Z,6.90
2022-12-19T01:47:25.607Z,6.80
2022-12-19T01:48:25.609Z,6.90
2022-12-19T01:49:25.579Z,7.10
2022-12-19T01:50:25.571Z,6.60
2022-12-19T01:51:25.562Z,6.40
2022-12-19T01:52:25.549Z,6.80
2022-12-19T01:53:25.557Z,6.50
2022-12-19T01:54:25.542Z,6.10
2022-12-19T01:55:25.516Z,6.60
2022-12-19T01:56:25.486Z,6.90
2022-12-19T01:57:25.471Z,6.80
2022-12-19T01:58:25.479Z,6.40
2022-12-19T01:59:25.444Z,6.70
2022-12-19T02:00:25.453Z,7.30
2022-12-19T02:01:25.546Z,7.10
2022-12-19T02:02:25.467Z,7.00
2022-12-19T02:03:25.443Z,7.00
2022-12-19T02:04:25.405Z,6.40
2022-12-19T02:05:25.383Z,6.90
2022-12-19T02:06:25.379Z,7.00
2022-12-19T02:07:25.363Z,7.10
2022-12-19T02:08:25.382Z,6.50
2022-12-19T02:09:25.366Z,7.00
2022-12-19T02:10:25.336Z,7.10
2022-12-19T02:11:25.333Z,7.50
2022-12-19T02:12:25.316Z,7.10
2022-12-19T02:13:25.328Z,7.00
2022-12-19T02:14:25.303Z,7.10
2022-12-19T02:15:25.276Z,7.50
2022-12-19T02:16:25.310Z,7.60
2022-12-19T02:17:25.268Z,7.70
2022-12-19T02:18:25.280Z,6.90
2022-12-19T02:19:25.245Z,6.90
2022-12-19T02:20:25.232Z,7.40
2022-12-19T02:21:25.229Z,7.00
2022-12-19T02:22:25.214Z,7.40
2022-12-19T02:23:25.206Z,6.70
2022-12-19T02:24:25.208Z,7.20
2022-12-19T02:25:25.182Z,7.40
2022-12-19T02:26:25.168Z,7.60
2022-12-19T02:27:25.160Z,7.30
2022-12-19T02:28:25.151Z,7.70
2022-12-19T02:29:25.159Z,7.20
2022-12-19T02:30:25.127Z,7.40
2022-12-19T02:31:25.150Z,6.60
2022-12-19T02:32:25.105Z,7.20
2022-12-19T02:33:25.110Z,6.70
2022-12-19T02:34:25.107Z,7.50
2022-12-19T02:35:25.089Z,7.30
2022-12-19T02:36:25.071Z,7.00
2022-12-19T02:37:25.053Z,7.20
2022-12-19T02:38:25.053Z,7.40
2022-12-19T02:39:25.064Z,7.50
2022-12-19T02:40:25.054Z,7.00
2022-12-19T02:41:25.016Z,7.30
2022-12-19T02:42:25.025Z,7.00
2022-12-19T02:43:24.995Z,7.20
2022-12-19T02:44:24.985Z,7.30
2022-12-19T02:45:28.583Z,7.30
2022-12-19T02:46:25.006Z,7.00
2022-12-19T02:47:24.957Z,7.20
2022-12-19T02:48:24.951Z,7.40
2022-12-19T02:49:30.711Z,7.40
2022-12-19T02:50:25.956Z,7.30
2022-12-19T02:51:24.940Z,6.90
2022-12-19T02:52:24.914Z,6.80
2022-12-19T02:53:24.925Z,7.00
2022-12-19T02:54:24.915Z,7.10
2022-12-19T02:55:24.883Z,6.90
2022-12-19T02:56:24.879Z,6.70
2022-12-19T02:57:24.881Z,7.20
2022-12-19T02:58:24.849Z,6.70
2022-12-19T02:59:24.832Z,6.50
2022-12-19T03:00:24.845Z,7.00
2022-12-19T03:01:24.923Z,6.40
2022-12-19T03:02:24.926Z,7.00
2022-12-19T03:03:24.873Z,6.50
2022-12-19T03:04:24.810Z,6.60
2022-12-19T03:05:24.794Z,6.30
2022-12-19T03:06:24.791Z,6.70
2022-12-19T03:07:24.751Z,6.70
2022-12-19T03:08:24.749Z,6.80
2022-12-19T03:09:24.743Z,6.20
2022-12-19T03:10:24.783Z,6.40
2022-12-19T03:11:24.722Z,6.20
2022-12-19T03:12:24.759Z,7.00
2022-12-19T03:13:24.692Z,6.20
2022-12-19T03:14:24.684Z,7.30
2022-12-19T03:15:24.704Z,6.50
2022-12-19T03:16:24.699Z,6.30
2022-12-19T03:17:24.736Z,6.90
2022-12-19T03:18:24.640Z,6.80
2022-12-19T03:19:24.642Z,7.50
2022-12-19T03:20:24.695Z,6.40
2022-12-19T03:21:24.611Z,6.80
2022-12-19T03:22:31.642Z,7.30
2022-12-19T03:23:24.594Z,6.80
2022-12-19T03:24:24.573Z,6.80
2022-12-19T03:25:24.591Z,7.00
2022-12-19T03:26:24.572Z,6.70
2022-12-19T03:27:24.556Z,6.20
2022-12-19T03:28:24.551Z,7.00
2022-12-19T03:29:24.554Z,6.70
2022-12-19T03:30:24.522Z,6.90
2022-12-19T03:31:24.564Z,6.90
2022-12-19T03:32:24.524Z,6.50
2022-12-19T03:33:24.494Z,6.50
2022-12-19T03:34:24.498Z,6.70
2022-12-19T03:35:24.479Z,6.60
2022-12-19T03:36:24.494Z,6.60
2022-12-19T03:37:24.478Z,6.70
2022-12-19T03:38:24.447Z,7.00
2022-12-19T03:39:24.457Z,6.90
2022-12-19T03:40:24.435Z,6.90
2022-12-19T03:41:24.405Z,6.20
2022-12-19T03:42:24.406Z,6.40
2022-12-19T03:43:24.396Z,6.20
2022-12-19T03:44:24.401Z,6.80
2022-12-19T03:45:24.366Z,6.70
2022-12-19T03:46:24.377Z,6.40
2022-12-19T03:47:24.350Z,6.50
2022-12-19T03:48:24.348Z,6.20
2022-12-19T03:49:24.336Z,6.30
2022-12-19T03:50:24.308Z,6.40
2022-12-19T03:51:24.324Z,6.60
2022-12-19T03:52:24.318Z,6.10
2022-12-19T03:53:24.287Z,6.60
2022-12-19T03:54:24.268Z,6.60
2022-12-19T03:55:24.270Z,5.80
2022-12-19T03:56:24.248Z,6.60
2022-12-19T03:57:24.256Z,6.60
2022-12-19T03:58:24.253Z,6.50
2022-12-19T03:59:24.240Z,6.60
2022-12-19T04:00:24.210Z,6.60
2022-12-19T04:01:24.292Z,6.40
2022-12-19T04:02:24.358Z,6.60
2022-12-19T04:03:24.209Z,6.40
2022-12-19T04:04:24.203Z,6.50
2022-12-19T04:05:24.173Z,6.70
2022-12-19T04:06:24.163Z,6.30
2022-12-19T04:07:24.131Z,6.10
2022-12-19T04:08:24.170Z,6.50
2022-12-19T04:09:24.140Z,6.60
2022-12-19T04:10:24.098Z,6.60
2022-12-19T04:11:24.093Z,6.30
2022-12-19T04:12:24.116Z,6.40
2022-12-19T04:13:24.110Z,6.50
2022-12-19T04:14:24.098Z,6.90
2022-12-19T04:15:24.047Z,6.30
2022-12-19T04:16:24.058Z,7.00
2022-12-19T04:17:24.032Z,6.50
2022-12-19T04:18:24.056Z,7.00
2022-12-19T04:19:24.034Z,7.10
2022-12-19T04:20:24.008Z,6.60
2022-12-19T04:21:23.986Z,6.80
2022-12-19T04:22:23.985Z,6.80
2022-12-19T04:23:23.986Z,6.20
2022-12-19T04:24:23.964Z,6.80
2022-12-19T04:25:29.041Z,7.00
2022-12-19T04:26:24.937Z,7.20
2022-12-19T04:27:23.929Z,7.10
2022-12-19T04:28:23.922Z,7.00
2022-12-19T04:29:23.919Z,7.00
2022-12-19T04:30:23.904Z,6.50
2022-12-19T04:31:23.965Z,7.20
2022-12-19T04:32:23.867Z,6.80
2022-12-19T04:33:23.881Z,6.90
2022-12-19T04:34:23.856Z,7.10
2022-12-19T04:35:23.856Z,6.50
2022-12-19T04:36:23.823Z,6.60
2022-12-19T04:37:23.816Z,7.10
2022-12-19T04:38:23.802Z,6.90
2022-12-19T04:39:23.806Z,6.70
2022-12-19T04:40:23.797Z,6.80
2022-12-19T04:41:23.831Z,13.20
2022-12-19T04:42:23.778Z,10.60
2022-12-19T04:43:23.761Z,9.80
2022-12-19T04:44:23.760Z,9.60
2022-12-19T04:45:23.741Z,9.30
2022-12-19T04:46:23.816Z,9.30
2022-12-19T04:47:23.748Z,8.50
2022-12-19T04:48:23.758Z,8.80
2022-12-19T04:49:23.725Z,8.50
2022-12-19T04:50:23.676Z,8.80
2022-12-19T04:51:23.667Z,8.90
2022-12-19T04:52:23.695Z,8.60
2022-12-19T04:53:23.684Z,8.30
2022-12-19T04:54:23.659Z,8.20
2022-12-19T04:55:23.624Z,8.20
2022-12-19T04:56:23.679Z,8.20
2022-12-19T04:57:23.607Z,8.20
2022-12-19T04:58:23.618Z,9.20
2022-12-19T04:59:23.609Z,9.20
2022-12-19T05:00:23.577Z,8.40
2022-12-19T05:01:23.693Z,8.60
2022-12-19T05:02:23.771Z,8.30
2022-12-19T05:03:23.607Z,8.00
2022-12-19T05:04:23.607Z,8.10
2022-12-19T05:05:23.570Z,8.30
2022-12-19T05:06:23.513Z,8.50
2022-12-19T05:07:23.528Z,7.90
2022-12-19T05:08:23.493Z,8.30
2022-12-19T05:09:23.533Z,8.10
2022-12-19T05:10:23.589Z,7.40
2022-12-19T05:11:23.484Z,7.70
2022-12-19T05:12:23.503Z,8.00
2022-12-19T05:13:23.435Z,7.70
2022-12-19T05:14:23.501Z,7.40
2022-12-19T05:15:23.466Z,7.70
2022-12-19T05:16:23.484Z,7.20
2022-12-19T05:17:23.594Z,7.50
2022-12-19T05:18:23.395Z,7.60
2022-12-19T05:19:23.419Z,8.00
2022-12-19T05:20:23.382Z,7.30
2022-12-19T05:21:23.400Z,6.80
2022-12-19T05:22:23.337Z,6.80
2022-12-19T05:23:23.329Z,6.70
2022-12-19T05:24:23.314Z,6.90
2022-12-19T05:25:23.340Z,7.30
2022-12-19T05:26:23.337Z,7.00
2022-12-19T05:27:23.315Z,7.10
2022-12-19T05:28:23.276Z,6.60
2022-12-19T05:29:23.264Z,7.20
2022-12-19T05:30:23.282Z,7.10
2022-12-19T05:31:23.348Z,7.00
2022-12-19T05:32:23.439Z,6.90
2022-12-19T05:33:23.465Z,7.40
2022-12-19T05:34:23.234Z,6.80
2022-12-19T05:35:23.217Z,7.00
2022-12-19T05:36:26.471Z,7.10
2022-12-19T05:37:24.179Z,7.40
2022-12-19T05:38:23.160Z,7.40
2022-12-19T05:39:23.192Z,7.30
2022-12-19T05:40:23.184Z,7.50
2022-12-19T05:41:23.215Z,7.30
2022-12-19T05:42:23.138Z,7.10
2022-12-19T05:43:23.110Z,7.20
2022-12-19T05:44:23.114Z,7.40
2022-12-19T05:45:23.100Z,7.50
2022-12-19T05:46:24.242Z,7.70
2022-12-19T05:47:23.079Z,7.20
2022-12-19T05:48:23.065Z,7.00
2022-12-19T05:49:23.040Z,7.20
2022-12-19T05:50:23.033Z,7.00
2022-12-19T05:51:23.050Z,6.80
2022-12-19T05:52:23.830Z,7.80
2022-12-19T05:53:26.097Z,8.10
2022-12-19T05:54:23.691Z,7.50
2022-12-19T05:55:24.131Z,10.40
2022-12-19T05:56:23.288Z,10.30
2022-12-19T05:57:22.957Z,10.60
2022-12-19T05:58:22.966Z,10.60
2022-12-19T05:59:22.966Z,10.90
2022-12-19T06:00:22.942Z,9.90
2022-12-19T06:01:23.044Z,9.40
2022-12-19T06:02:23.053Z,9.30
2022-12-19T06:03:23.795Z,9.30
2022-12-19T06:04:22.918Z,8.00
2022-12-19T06:05:22.945Z,7.90
2022-12-19T06:06:22.887Z,7.90
2022-12-19T06:07:24.067Z,7.50
2022-12-19T06:08:22.857Z,7.30
2022-12-19T06:09:22.834Z,7.50
2022-12-19T06:10:23.003Z,7.40
2022-12-19T06:11:23.822Z,7.90
2022-12-19T06:12:23.276Z,7.80
2022-12-19T06:13:25.104Z,7.70
2022-12-19T06:14:23.698Z,7.90
2022-12-19T06:15:22.782Z,7.80
2022-12-19T06:16:22.839Z,7.30
2022-12-19T06:17:23.381Z,7.70
2022-12-19T06:18:23.596Z,7.50
2022-12-19T06:19:23.586Z,8.00
2022-12-19T06:20:23.538Z,7.50
2022-12-19T06:21:22.884Z,8.10
2022-12-19T06:22:22.940Z,7.80
2022-12-19T06:23:23.319Z,7.70
2022-12-19T06:24:23.451Z,7.80
2022-12-19T06:25:23.608Z,7.80
2022-12-19T06:26:22.656Z,7.80
2022-12-19T06:27:22.660Z,7.60
2022-12-19T06:28:22.630Z,8.10
2022-12-19T06:29:22.624Z,8.00
2022-12-19T06:30:22.614Z,7.80
2022-12-19T06:31:22.662Z,7.60
2022-12-19T06:32:22.603Z,8.10
2022-12-19T06:33:22.616Z,7.80
2022-12-19T06:34:55.106Z,7.70
2022-12-19T06:35:23.551Z,8.00
2022-12-19T06:36:22.547Z,8.00
2022-12-19T06:37:22.557Z,7.60
2022-12-19T06:38:22.527Z,8.20
2022-12-19T06:39:22.512Z,8.50
2022-12-19T06:40:22.509Z,8.20
2022-12-19T06:41:22.502Z,8.40
2022-12-19T06:42:22.530Z,8.20
2022-12-19T06:43:22.500Z,8.50
2022-12-19T06:44:22.478Z,8.00
2022-12-19T06:45:22.524Z,8.90
2022-12-19T06:46:22.460Z,8.50
2022-12-19T06:47:22.445Z,8.50
2022-12-19T06:48:22.445Z,7.70
2022-12-19T06:49:22.401Z,8.30
2022-12-19T06:50:22.409Z,8.50
2022-12-19T06:51:22.393Z,8.20
2022-12-19T06:52:22.486Z,8.10
2022-12-19T06:53:22.380Z,7.70
2022-12-19T06:54:22.360Z,8.80
2022-12-19T06:55:22.347Z,8.20
2022-12-19T06:56:22.332Z,8.30
2022-12-19T06:57:22.322Z,8.40
2022-12-19T06:58:24.406Z,8.60
2022-12-19T06:59:22.319Z,8.60
2022-12-19T07:00:22.316Z,8.80
2022-12-19T07:01:22.467Z,8.90
2022-12-19T07:02:22.342Z,8.20
2022-12-19T07:03:22.348Z,8.00
2022-12-19T07:04:22.243Z,8.00
2022-12-19T07:05:22.269Z,8.00
2022-12-19T07:06:22.226Z,8.90
2022-12-19T07:07:22.227Z,8.70
2022-12-19T07:08:22.230Z,8.90
2022-12-19T07:09:22.254Z,8.60
2022-12-19T07:10:22.223Z,9.20
2022-12-19T07:11:22.219Z,8.70
2022-12-19T07:12:22.211Z,9.90
2022-12-19T07:13:22.176Z,9.70
2022-12-19T07:14:22.151Z,9.10
2022-12-19T07:15:22.128Z,8.90
2022-12-19T07:16:22.177Z,8.80
2022-12-19T07:17:22.156Z,8.40
2022-12-19T07:18:22.135Z,9.50
2022-12-19T07:19:22.262Z,9.20
2022-12-19T07:20:22.086Z,8.00
2022-12-19T07:21:22.098Z,8.60
2022-12-19T07:22:22.059Z,9.40
2022-12-19T07:23:22.050Z,9.10
2022-12-19T07:24:22.049Z,8.90
2022-12-19T07:25:22.045Z,9.10
2022-12-19T07:26:22.016Z,8.30
2022-12-19T07:27:22.003Z,8.90
2022-12-19T07:28:22.000Z,8.30
2022-12-19T07:29:22.018Z,9.10
2022-12-19T07:30:21.982Z,8.50
2022-12-19T07:31:22.021Z,8.90
2022-12-19T07:32:21.976Z,8.90
2022-12-19T07:33:22.333Z,9.00
2022-12-19T07:34:22.156Z,9.20
2022-12-19T07:35:21.955Z,9.20
2022-12-19T07:36:21.908Z,9.00
2022-12-19T07:37:21.937Z,9.40
2022-12-19T07:38:21.938Z,8.50
2022-12-19T07:39:21.931Z,9.50
2022-12-19T07:40:21.876Z,10.00
2022-12-19T07:41:21.873Z,9.50
2022-12-19T07:42:21.859Z,10.10
2022-12-19T07:43:21.971Z,9.90
2022-12-19T07:44:21.852Z,9.50
2022-12-19T07:45:21.822Z,9.70
2022-12-19T07:46:21.902Z,9.70
2022-12-19T07:47:21.787Z,9.50
2022-12-19T07:48:21.787Z,9.80
2022-12-19T07:49:22.956Z,8.90
2022-12-19T07:50:21.768Z,9.80
2022-12-19T07:51:21.758Z,10.00
2022-12-19T07:52:21.743Z,10.00
2022-12-19T07:53:21.755Z,9.40
2022-12-19T07:54:21.738Z,10.20
2022-12-19T07:55:21.704Z,9.30
2022-12-19T07:56:21.717Z,9.90
2022-12-19T07:57:21.686Z,9.80
2022-12-19T07:58:21.680Z,9.80
2022-12-19T07:59:27.321Z,9.70
2022-12-19T08:00:22.653Z,10.60
2022-12-19T08:01:21.779Z,10.20
2022-12-19T08:02:21.730Z,11.60
2022-12-19T08:03:21.652Z,10.90
2022-12-19T08:04:21.604Z,11.20
2022-12-19T08:05:22.036Z,11.00
2022-12-19T08:06:21.602Z,10.10
2022-12-19T08:07:21.579Z,11.00
2022-12-19T08:08:21.596Z,10.30
2022-12-19T08:09:21.549Z,10.80
2022-12-19T08:10:21.551Z,10.80
2022-12-19T08:11:21.556Z,10.30
2022-12-19T08:12:21.532Z,10.60
2022-12-19T08:13:21.507Z,10.40
2022-12-19T08:14:21.507Z,10.80
2022-12-19T08:15:21.503Z,10.40
2022-12-19T08:16:21.541Z,10.60
2022-12-19T08:17:21.816Z,10.40
2022-12-19T08:18:21.455Z,10.50
2022-12-19T08:19:25.903Z,10.70
2022-12-19T08:20:22.442Z,10.60
2022-12-19T08:21:21.438Z,11.10
2022-12-19T08:22:21.437Z,10.50
2022-12-19T08:23:21.421Z,11.10
2022-12-19T08:24:21.389Z,10.20
2022-12-19T08:25:21.405Z,11.00
2022-12-19T08:26:21.367Z,11.70
2022-12-19T08:27:21.363Z,10.90
2022-12-19T08:28:21.386Z,11.20
2022-12-19T08:29:21.342Z,11.70
2022-12-19T08:30:21.350Z,11.10
2022-12-19T08:31:21.371Z,11.20
2022-12-19T08:32:21.903Z,10.50
2022-12-19T08:33:21.299Z,11.90
2022-12-19T08:34:21.333Z,11.60
2022-12-19T08:35:21.286Z,10.70
2022-12-19T08:36:21.268Z,11.60
2022-12-19T08:37:21.250Z,12.40
2022-12-19T08:38:21.275Z,11.50
2022-12-19T08:39:21.245Z,11.70
2022-12-19T08:40:21.229Z,11.40
2022-12-19T08:41:21.213Z,11.40
2022-12-19T08:42:21.209Z,11.00
2022-12-19T08:43:21.205Z,11.30
2022-12-19T08:44:21.228Z,11.90
2022-12-19T08:45:21.224Z,11.20
2022-12-19T08:46:21.309Z,12.10
2022-12-19T08:47:21.155Z,11.50
2022-12-19T08:48:21.146Z,11.50
2022-12-19T08:49:21.152Z,11.90
2022-12-19T08:50:21.132Z,11.80
2022-12-19T08:51:21.120Z,12.00
2022-12-19T08:52:21.097Z,12.20
2022-12-19T08:53:25.982Z,11.80
2022-12-19T08:54:22.101Z,11.50
2022-12-19T08:55:21.117Z,12.20
2022-12-19T08:56:21.055Z,11.40
2022-12-19T08:57:21.071Z,11.40
2022-12-19T08:58:21.039Z,11.10
2022-12-19T08:59:30.414Z,12.60
2022-12-19T09:00:22.019Z,11.60
2022-12-19T09:01:21.230Z,11.60
2022-12-19T09:02:21.154Z,11.50
2022-12-19T09:03:21.197Z,12.40
2022-12-19T09:05:51.242Z,12.10
2022-12-19T09:05:58.358Z,11.90
2022-12-19T09:06:22.030Z,12.30
2022-12-19T09:07:20.995Z,12.40
2022-12-19T09:08:20.970Z,12.90
2022-12-19T09:09:29.673Z,13.10
2022-12-19T09:10:20.949Z,13.20
2022-12-19T09:11:20.915Z,13.10
2022-12-19T09:12:20.902Z,13.60
2022-12-19T09:13:20.915Z,13.80
2022-12-19T09:14:21.675Z,13.70
2022-12-19T09:15:20.871Z,13.40
2022-12-19T09:16:20.944Z,13.00
2022-12-19T09:17:20.918Z,13.00
2022-12-19T09:18:20.874Z,12.90
2022-12-19T09:19:20.820Z,12.50
2022-12-19T09:20:23.354Z,11.90
2022-12-19T09:21:20.798Z,12.80
2022-12-19T09:22:20.793Z,12.90
2022-12-19T09:24:32.769Z,12.40
2022-12-19T09:25:32.767Z,12.50
2022-12-19T09:26:32.926Z,12.50
2022-12-19T09:27:42.490Z,12.40
2022-12-19T09:28:33.729Z,12.80
2022-12-19T09:29:35.506Z,12.10
2022-12-19T09:30:32.791Z,12.40
2022-12-19T09:31:32.756Z,12.50
2022-12-19T09:32:32.730Z,12.60
2022-12-19T09:33:35.501Z,12.50
2022-12-19T09:34:37.644Z,12.90
2022-12-19T09:35:33.687Z,12.80
2022-12-19T09:36:32.650Z,12.30
2022-12-19T09:37:32.641Z,11.80
2022-12-19T09:38:32.645Z,12.70
2022-12-19T09:39:33.688Z,12.80
2022-12-19T09:40:32.674Z,12.10
2022-12-19T09:41:32.595Z,12.50
2022-12-19T09:42:32.578Z,12.70
2022-12-19T09:43:39.625Z,12.50
2022-12-19T09:44:33.583Z,12.80
2022-12-19T09:45:33.117Z,12.70
2022-12-19T09:46:32.587Z,13.30
2022-12-19T09:47:32.549Z,14.20
2022-12-19T09:48:32.593Z,14.30
2022-12-19T09:49:32.509Z,13.40
2022-12-19T09:50:32.560Z,12.70
2022-12-19T09:51:32.506Z,13.00
2022-12-19T09:52:33.122Z,13.40
2022-12-19T09:53:32.471Z,13.30
2022-12-19T09:54:32.451Z,13.60
2022-12-19T09:55:32.468Z,14.00
2022-12-19T09:56:34.020Z,13.10
2022-12-19T09:57:33.449Z,13.10
2022-12-19T09:58:32.442Z,15.00
2022-12-19T09:59:41.562Z,15.10
2022-12-19T10:00:33.414Z,13.90
2022-12-19T10:01:32.594Z,14.60
2022-12-19T10:02:32.597Z,14.20
2022-12-19T10:03:39.803Z,14.00
2022-12-19T10:04:33.356Z,13.80
2022-12-19T10:06:37.189Z,13.70
2022-12-19T10:07:07.940Z,13.40
2022-12-19T10:07:53.337Z,13.00
2022-12-19T10:08:33.322Z,13.60
2022-12-19T10:10:34.055Z,14.00
2022-12-19T10:12:38.001Z,13.90
2022-12-19T10:12:42.259Z,14.10
2022-12-19T10:12:44.271Z,13.30
2022-12-19T10:13:33.328Z,13.40
2022-12-19T10:14:32.245Z,13.20
2022-12-19T10:15:32.271Z,13.90
2022-12-19T10:16:32.273Z,14.10
2022-12-19T10:17:32.223Z,13.70
2022-12-19T10:18:32.237Z,13.20
2022-12-19T10:19:32.185Z,14.20
2022-12-19T10:20:32.208Z,13.30
2022-12-19T10:22:07.653Z,12.80
2022-12-19T10:22:33.164Z,13.80
2022-12-19T10:23:32.140Z,13.50
2022-12-19T10:24:35.201Z,13.50
2022-12-19T10:25:32.162Z,13.70
2022-12-19T10:26:32.114Z,13.40
2022-12-19T10:27:32.113Z,13.70
2022-12-19T10:28:32.090Z,13.60
2022-12-19T10:29:32.078Z,13.20
2022-12-19T10:30:32.373Z,13.20
2022-12-19T10:31:32.080Z,12.70
2022-12-19T10:32:32.048Z,13.00
2022-12-19T10:33:32.037Z,13.20
2022-12-19T10:34:32.061Z,13.00
2022-12-19T10:35:32.039Z,13.20
2022-12-19T10:37:11.947Z,12.70
2022-12-19T10:37:42.366Z,12.60
2022-12-19T10:38:32.996Z,13.20
2022-12-19T10:39:31.997Z,12.60
2022-12-19T10:40:32.039Z,13.20
2022-12-19T10:41:32.183Z,12.70
2022-12-19T10:42:32.002Z,12.80
2022-12-19T10:43:35.669Z,12.70
2022-12-19T10:44:32.914Z,12.80
2022-12-19T10:45:31.926Z,13.50
2022-12-19T10:46:32.007Z,13.30
2022-12-19T10:47:31.909Z,14.10
2022-12-19T10:48:31.909Z,13.40
2022-12-19T10:49:32.000Z,13.00
2022-12-19T10:50:31.913Z,12.50
2022-12-19T10:51:31.879Z,12.70
2022-12-19T10:52:31.835Z,12.70
2022-12-19T10:53:31.834Z,13.80
2022-12-19T10:54:33.757Z,13.10
2022-12-19T10:55:31.825Z,13.10
2022-12-19T10:56:37.146Z,12.90
2022-12-19T10:57:32.884Z,12.90
2022-12-19T10:58:31.804Z,13.50
2022-12-19T10:59:31.799Z,13.20
2022-12-19T11:00:33.049Z,13.40
2022-12-19T11:01:31.894Z,13.30
2022-12-19T11:02:31.839Z,13.60
2022-12-19T11:03:31.825Z,14.30
2022-12-19T11:04:32.722Z,14.30
2022-12-19T11:05:31.750Z,13.80
2022-12-19T11:06:31.687Z,14.00
2022-12-19T11:07:31.777Z,12.90
2022-12-19T11:08:31.786Z,13.50
2022-12-19T11:09:31.686Z,13.10
2022-12-19T11:12:36.469Z,12.40
2022-12-19T11:14:32.068Z,13.40
2022-12-19T11:16:38.279Z,12.70
2022-12-19T11:18:13.476Z,13.40
2022-12-19T11:18:41.567Z,13.20
2022-12-19T11:19:23.334Z,13.10
2022-12-19T11:21:17.100Z,12.80
2022-12-19T11:23:54.215Z,12.70
2022-12-19T11:29:17.973Z,13.40
2022-12-19T11:29:19.313Z,13.30
2022-12-19T11:29:37.894Z,13.50
2022-12-19T11:29:45.591Z,12.90
2022-12-19T11:30:36.476Z,12.50
2022-12-19T11:30:37.378Z,12.80
2022-12-19T11:30:42.986Z,12.80
2022-12-19T11:30:44.320Z,11.50
2022-12-19T11:30:44.320Z,13.00
2022-12-19T11:30:47.827Z,13.00
2022-12-19T11:30:48.003Z,12.60
2022-12-19T11:31:46.600Z,12.20
2022-12-19T11:32:40.584Z,12.60
2022-12-19T11:33:32.499Z,11.70
2022-12-19T11:34:31.384Z,12.70
2022-12-19T11:35:36.746Z,12.90
2022-12-19T11:36:32.477Z,12.80
2022-12-19T11:37:31.399Z,13.00
2022-12-19T11:38:31.361Z,12.80
2022-12-19T11:39:31.337Z,13.00
2022-12-19T11:40:31.312Z,13.30
2022-12-19T11:41:31.300Z,13.30
2022-12-19T11:42:31.306Z,12.70
2022-12-19T11:43:47.176Z,12.90
2022-12-19T11:44:32.308Z,13.00
2022-12-19T11:45:31.271Z,12.90
2022-12-19T11:46:31.267Z,12.50
2022-12-19T11:47:31.237Z,11.40
2022-12-19T11:48:31.236Z,12.10
2022-12-19T11:49:31.290Z,11.80
2022-12-19T11:50:31.325Z,11.80
2022-12-19T11:51:31.255Z,11.80
2022-12-19T11:53:32.234Z,11.90
2022-12-19T11:54:31.277Z,11.60
2022-12-19T11:55:31.162Z,12.00
2022-12-19T11:56:31.148Z,12.60
2022-12-19T11:57:31.167Z,11.70
2022-12-19T11:58:31.108Z,12.60
2022-12-19T11:59:31.106Z,12.20
2022-12-19T12:00:31.115Z,11.60
2022-12-19T12:01:31.109Z,11.50
2022-12-19T12:02:31.119Z,11.50
2022-12-19T12:03:31.176Z,11.60
2022-12-19T12:04:31.195Z,11.40
2022-12-19T12:05:31.095Z,11.00
2022-12-19T12:06:31.726Z,11.80
2022-12-19T12:08:25.497Z,11.40
2022-12-19T12:09:47.682Z,12.50
2022-12-19T12:13:22.298Z,12.50
2022-12-19T12:13:59.363Z,12.40
2022-12-19T12:19:33.813Z,12.10
2022-12-19T12:19:53.715Z,11.90
2022-12-19T12:20:43.331Z,12.30
2022-12-19T12:21:14.286Z,11.90
2022-12-19T12:28:51.528Z,12.80
2022-12-19T12:29:34.497Z,12.20
2022-12-19T12:31:05.471Z,14.10
2022-12-19T12:31:07.462Z,13.10
2022-12-19T12:31:08.449Z,13.80
2022-12-19T12:31:11.913Z,13.20
2022-12-19T12:31:20.597Z,14.80
2022-12-19T12:31:21.234Z,13.90
2022-12-19T12:31:21.672Z,13.50
2022-12-19T12:31:46.050Z,13.00
2022-12-19T12:31:49.898Z,12.20
2022-12-19T12:31:52.578Z,13.20
2022-12-19T12:31:53.069Z,12.20
2022-12-19T12:32:03.188Z,13.00
2022-12-19T12:32:04.207Z,13.40
2022-12-19T12:32:04.348Z,12.10
2022-12-19T12:35:43.569Z,12.20
2022-12-19T12:35:45.387Z,12.70
2022-12-19T12:35:52.125Z,12.00
2022-12-19T12:35:52.361Z,11.50
2022-12-19T12:38:16.669Z,11.20
2022-12-19T12:38:32.546Z,11.10
2022-12-19T12:39:33.709Z,11.30
2022-12-19T12:40:30.724Z,10.90
2022-12-19T12:41:30.688Z,11.00
2022-12-19T12:42:30.709Z,10.90
2022-12-19T12:43:30.629Z,11.70
2022-12-19T12:44:33.428Z,11.80
2022-12-19T12:45:30.651Z,11.30
2022-12-19T12:46:30.625Z,11.90
2022-12-19T12:47:30.620Z,11.80
2022-12-19T12:48:30.594Z,11.60
2022-12-19T12:49:30.580Z,11.00
2022-12-19T12:50:30.736Z,12.20
2022-12-19T12:51:31.610Z,11.50
2022-12-19T12:52:30.558Z,12.20
2022-12-19T12:53:30.548Z,10.90
2022-12-19T12:54:30.553Z,11.90
2022-12-19T12:55:30.654Z,11.80
2022-12-19T12:56:30.507Z,11.10
2022-12-19T12:57:30.520Z,12.00
2022-12-19T12:58:30.479Z,11.50
2022-12-19T12:59:30.457Z,11.30
2022-12-19T13:00:30.492Z,11.50
2022-12-19T13:01:30.594Z,11.80
2022-12-19T13:02:30.527Z,11.90
2022-12-19T13:03:30.474Z,11.90
2022-12-19T13:04:30.407Z,12.00
2022-12-19T13:05:30.402Z,11.30
2022-12-19T13:06:30.390Z,11.70
2022-12-19T13:07:30.386Z,12.20
2022-12-19T13:08:30.378Z,11.30
2022-12-19T13:09:30.432Z,11.90
2022-12-19T13:10:30.410Z,12.10
2022-12-19T13:11:30.320Z,12.70
2022-12-19T13:12:30.385Z,12.80
2022-12-19T13:13:30.428Z,12.80